Tamworth, Virginia
Current Conditions -  °F | °C
As of 9:15 AM on Sunday 25 Jan 2015 (Local Time) from KFVX Reporting Station
Clear Clear  
Wind Chill: 33°   Ceiling: Unl
Heat Index: 38°   Visibility: 10mi
Dew Point: 33°   Wind: 6mph
Humidity: 83%   Direction: 200°SSW
Pressure: 29.88"   Gusts: NA
Location:  37.6363°N, 78.1343°W
Report Text: KFVX 251415Z AUTO 20005KT 10SM CLR 03/01 A2988 RMK AO2 T00320006
Loading
Personal Weather Stations






























Interactive Weather Map New forecast layout! Learn more

10-Day Weather Forecast

Advertisements
Track Severe Weather on mobile